Time;durP1;ratioP1;P1;durP2;ratioP2;P2;SDS_P1;SDS_P2;PMS_P1;PMS_P2;Temp;Humidity;BMP_temperature;BMP_pressure;BME280_temperature;BME280_humidity;BME280_pressure;Samples;Min_cycle;Max_cycle;Signal;HPM_P1;HPM_P2
2023/08/20 00:01:42;;;;;;;18.45;11.38;;;;;;;-142.57;75.52;115900.28;4999429;28;20065;-89
2023/08/20 00:04:09;;;;;;;19.77;11.93;;;;;;;-142.57;75.44;115900.28;5001560;28;20052;-88
2023/08/20 00:06:35;;;;;;;21.73;11.48;;;;;;;-142.57;75.45;115900.28;5000863;28;20034;-85
2023/08/20 00:09:00;;;;;;;26.17;11.90;;;;;;;-142.57;75.11;115900.28;4988129;28;20102;-87
2023/08/20 00:11:26;;;;;;;18.63;11.27;;;;;;;-142.57;75.90;115900.28;5014259;28;20034;-84
2023/08/20 00:13:53;;;;;;;18.00;10.38;;;;;;;-142.57;76.14;115900.28;4997437;28;20077;-86
2023/08/20 00:16:18;;;;;;;14.38;10.27;;;;;;;-142.57;76.34;115900.28;4998244;28;20054;-88
2023/08/20 00:18:45;;;;;;;19.17;10.18;;;;;;;-142.57;75.43;115900.28;5014683;28;20031;-88
2023/08/20 00:21:11;;;;;;;15.25;9.68;;;;;;;-142.57;74.81;115900.28;5014851;28;20034;-87
2023/08/20 00:23:40;;;;;;;20.10;10.52;;;;;;;-142.57;75.39;115900.28;5015168;28;20051;-84
2023/08/20 00:26:06;;;;;;;19.83;10.48;;;;;;;-142.57;75.19;115900.28;5016353;28;20042;-86
2023/08/20 00:28:36;;;;;;;15.00;10.45;;;;;;;-142.57;74.97;115900.28;5016972;28;20106;-89
2023/08/20 00:31:02;;;;;;;19.42;10.73;;;;;;;-142.57;76.01;115900.28;4998250;28;20050;-87
2023/08/20 00:33:34;;;;;;;19.55;10.32;;;;;;;-142.57;76.86;115900.28;5015563;28;20049;-86
2023/08/20 00:36:00;;;;;;;15.23;10.52;;;;;;;-142.57;76.63;115900.28;4995537;28;20061;-90
2023/08/20 00:38:26;;;;;;;18.27;10.88;;;;;;;-142.57;75.60;115900.28;4990474;28;20069;-91
2023/08/20 00:40:51;;;;;;;20.33;9.95;;;;;;;-142.57;75.54;115900.28;4988529;28;20049;-87
2023/08/20 00:43:17;;;;;;;18.83;9.38;;;;;;;-142.57;75.31;115900.28;5005822;28;20022;-89
2023/08/20 00:45:43;;;;;;;15.63;10.38;;;;;;;-142.57;74.94;115900.28;4973115;28;20085;-91
2023/08/20 00:48:11;;;;;;;14.27;10.75;;;;;;;-142.57;74.21;115900.28;4986386;28;20038;-91
2023/08/20 00:50:38;;;;;;;22.83;11.30;;;;;;;-142.57;74.92;115900.28;5000083;28;20034;-90
2023/08/20 00:53:05;;;;;;;16.13;10.65;;;;;;;-142.57;75.14;115900.28;5000249;28;20474;-90
2023/08/20 00:55:30;;;;;;;16.52;10.38;;;;;;;-142.57;74.64;115900.28;4985014;28;20053;-89
2023/08/20 00:57:56;;;;;;;18.20;10.27;;;;;;;-142.57;74.02;115900.28;4985551;28;20485;-90
2023/08/20 01:00:23;;;;;;;22.45;10.68;;;;;;;-142.57;74.01;115900.28;5003072;28;20045;-91
2023/08/20 01:02:49;;;;;;;22.42;10.88;;;;;;;-142.57;73.86;115900.28;5005867;28;20148;-85
2023/08/20 01:05:16;;;;;;;19.42;10.05;;;;;;;-142.57;73.89;115900.28;4993945;28;20026;-85
2023/08/20 01:07:47;;;;;;;17.67;9.68;;;;;;;-142.57;73.39;115900.28;4993575;28;20042;-85
2023/08/20 01:10:28;;;;;;;15.50;9.77;;;;;;;-142.57;73.35;115900.28;4990586;28;20035;-86
2023/08/20 01:12:56;;;;;;;18.08;10.40;;;;;;;-142.57;73.11;115900.28;4986801;28;20084;-86
2023/08/20 01:15:25;;;;;;;27.90;10.75;;;;;;;-142.57;73.43;115900.28;5000350;28;20054;-86
2023/08/20 01:17:51;;;;;;;18.10;9.70;;;;;;;-142.57;72.27;115900.28;5000450;28;20413;-88
2023/08/20 01:20:17;;;;;;;17.30;10.50;;;;;;;-142.57;72.44;115900.28;4982552;28;20030;-91
2023/08/20 01:23:10;;;;;;;20.02;10.50;;;;;;;-142.57;73.20;115900.28;5001121;28;20407;-90
2023/08/20 01:26:26;;;;;;;15.88;10.38;;;;;;;-142.57;73.24;115900.28;5001219;28;20038;-89
2023/08/20 01:28:52;;;;;;;20.45;10.95;;;;;;;-142.57;74.25;115900.28;5000214;28;20042;-86
2023/08/20 01:31:18;;;;;;;18.05;10.13;;;;;;;-142.57;74.38;115900.28;4982558;28;20042;-89
2023/08/20 01:33:44;;;;;;;14.38;10.35;;;;;;;-142.57;74.16;115900.28;4999101;28;20038;-90
2023/08/20 01:36:13;;;;;;;12.55;9.25;;;;;;;-142.57;73.72;115900.28;4981664;28;20026;-93
2023/08/20 01:38:40;;;;;;;18.45;10.32;;;;;;;-142.57;73.78;115900.28;4997947;28;20034;-87
2023/08/20 01:41:06;;;;;;;15.60;9.73;;;;;;;-142.57;73.39;115900.28;5001559;28;20057;-87
2023/08/20 01:43:32;;;;;;;18.27;9.90;;;;;;;-142.57;73.91;115900.28;5002167;28;20137;-89
2023/08/20 01:45:58;;;;;;;16.38;10.75;;;;;;;-142.57;74.30;115900.28;4984320;28;20038;-89
2023/08/20 01:48:23;;;;;;;15.63;11.05;;;;;;;-142.57;75.04;115900.28;5001274;28;20034;-87
2023/08/20 01:50:49;;;;;;;16.48;9.95;;;;;;;-142.57;74.95;115900.28;5001726;28;20034;-88
2023/08/20 01:53:17;;;;;;;19.38;10.35;;;;;;;-142.57;75.19;115900.28;4967461;28;20038;-87
2023/08/20 01:55:43;;;;;;;13.30;10.07;;;;;;;-142.57;75.40;115900.28;5001065;28;20038;-90
2023/08/20 01:58:08;;;;;;;20.38;10.38;;;;;;;-142.57;76.28;115900.28;5002489;28;20045;-87
2023/08/20 02:00:34;;;;;;;13.82;9.65;;;;;;;-142.57;75.35;115900.28;4993460;28;20085;-85
2023/08/20 02:03:03;;;;;;;15.52;10.10;;;;;;;-142.57;75.29;115900.28;5016119;28;20049;-88
2023/08/20 02:05:29;;;;;;;25.30;10.65;;;;;;;-142.57;76.27;115900.28;5010234;28;20034;-89
2023/08/20 02:07:54;;;;;;;14.98;10.43;;;;;;;-142.57;76.51;115900.28;5001612;28;20030;-86
2023/08/20 02:10:21;;;;;;;16.10;9.57;;;;;;;-142.57;75.84;115900.28;5002353;28;20042;-85
2023/08/20 02:12:49;;;;;;;17.40;10.57;;;;;;;-142.57;75.00;115900.28;4983114;28;20085;-89
2023/08/20 02:15:15;;;;;;;15.88;10.55;;;;;;;-142.57;75.35;115900.28;5000244;28;20042;-84
2023/08/20 02:17:41;;;;;;;19.80;10.35;;;;;;;-142.57;76.53;115900.28;4999371;28;20472;-91
2023/08/20 02:20:10;;;;;;;21.52;11.93;;;;;;;-142.57;76.51;115900.28;5000765;28;20061;-87
2023/08/20 02:22:38;;;;;;;11.82;9.70;;;;;;;-142.57;76.31;115900.28;4998967;28;20458;-85
2023/08/20 02:25:04;;;;;;;16.45;10.23;;;;;;;-142.57;76.98;115900.28;4982489;28;20034;-88
2023/08/20 02:27:32;;;;;;;18.63;11.25;;;;;;;-142.57;78.48;115900.28;5000522;28;20050;-86
2023/08/20 02:29:57;;;;;;;17.40;10.85;;;;;;;-142.57;79.54;115900.28;4980731;28;20089;-86
2023/08/20 02:32:23;;;;;;;14.60;10.80;;;;;;;-142.57;80.24;115900.28;4998686;28;20034;-87
2023/08/20 02:34:51;;;;;;;15.80;10.82;;;;;;;-142.57;80.50;115900.28;4998101;28;20038;-89
2023/08/20 02:37:17;;;;;;;18.73;12.18;;;;;;;-142.57;80.42;115900.28;4998682;28;20080;-84
2023/08/20 02:39:44;;;;;;;23.88;12.07;;;;;;;-142.57;83.19;115900.28;4998248;28;20034;-86
2023/08/20 02:42:09;;;;;;;22.48;12.75;;;;;;;-142.57;83.71;115900.28;4998245;28;20398;-87
2023/08/20 02:44:35;;;;;;;19.45;12.13;;;;;;;-142.57;83.74;115900.28;4980649;28;20034;-85
2023/08/20 02:47:00;;;;;;;23.10;12.65;;;;;;;-142.57;84.01;115900.28;4998558;28;20034;-85
2023/08/20 02:49:28;;;;;;;23.63;12.38;;;;;;;-142.57;84.39;115900.28;4998953;28;20035;-88
2023/08/20 02:51:54;;;;;;;23.88;13.50;;;;;;;-142.57;85.66;115900.28;4998046;28;20449;-85
2023/08/20 02:54:25;;;;;;;23.90;14.55;;;;;;;-142.57;86.71;115900.28;4981151;28;20046;-87
2023/08/20 02:56:51;;;;;;;20.27;15.82;;;;;;;-142.57;88.64;115900.28;4978685;28;20053;-89
2023/08/20 02:59:16;;;;;;;21.50;14.43;;;;;;;-142.57;89.43;115900.28;4997925;28;20026;-84
2023/08/20 03:01:42;;;;;;;24.83;13.60;;;;;;;-142.57;88.93;115900.28;4980845;28;20037;-88
2023/08/20 03:04:07;;;;;;;18.35;12.60;;;;;;;-142.57;87.68;115900.28;4981519;28;20116;-88
2023/08/20 03:06:33;;;;;;;20.10;13.30;;;;;;;-142.57;87.37;115900.28;4982200;28;20030;-85
2023/08/20 03:09:03;;;;;;;25.55;13.48;;;;;;;-142.57;88.59;115900.28;4982670;28;20045;-88
2023/08/20 03:11:30;;;;;;;19.08;13.45;;;;;;;-142.57;88.54;115900.28;4981385;28;20098;-86
2023/08/20 03:13:55;;;;;;;24.05;13.98;;;;;;;-142.57;88.55;115900.28;4999197;28;20034;-88
2023/08/20 03:16:24;;;;;;;22.05;14.55;;;;;;;-142.57;88.15;115900.28;4982189;28;20096;-87
2023/08/20 03:18:49;;;;;;;21.08;13.98;;;;;;;-142.57;87.30;115900.28;5002123;28;20098;-89
2023/08/20 03:21:15;;;;;;;21.52;14.15;;;;;;;-142.57;86.89;115900.28;5001056;28;20128;-91
2023/08/20 03:23:41;;;;;;;17.50;13.68;;;;;;;-142.57;86.13;115900.28;4982586;28;20038;-90
2023/08/20 03:26:07;;;;;;;27.15;14.13;;;;;;;-142.57;87.25;115900.28;5001019;28;20054;-86
2023/08/20 03:28:32;;;;;;;18.90;13.60;;;;;;;-142.57;88.26;115900.28;5000693;28;20061;-91
2023/08/20 03:31:01;;;;;;;20.10;13.07;;;;;;;-142.57;89.43;115900.28;5000179;28;20100;-88
2023/08/20 03:33:30;;;;;;;17.85;13.20;;;;;;;-142.57;89.51;115900.28;4982985;28;20035;-92
2023/08/20 03:35:56;;;;;;;22.27;13.73;;;;;;;-142.57;88.81;115900.28;4981786;28;20026;-89
2023/08/20 03:38:22;;;;;;;22.35;13.30;;;;;;;-142.57;88.11;115900.28;4982421;28;20549;-86
2023/08/20 03:40:48;;;;;;;16.77;12.73;;;;;;;-142.57;87.47;115900.28;4999232;28;20137;-89
2023/08/20 03:43:14;;;;;;;16.15;13.20;;;;;;;-142.57;87.98;115900.28;4981828;28;20493;-85
2023/08/20 03:45:40;;;;;;;15.43;12.18;;;;;;;-142.57;88.55;115900.28;4981020;28;20049;-86
2023/08/20 03:48:06;;;;;;;18.63;12.77;;;;;;;-142.57;88.61;115900.28;4998147;28;20026;-87
2023/08/20 03:50:31;;;;;;;26.45;12.95;;;;;;;-142.57;88.96;115900.28;4980883;28;20110;-86
2023/08/20 03:53:00;;;;;;;21.60;12.48;;;;;;;-142.57;89.52;115900.28;4981236;28;20034;-87
2023/08/20 03:55:26;;;;;;;17.48;12.45;;;;;;;-142.57;89.19;115900.28;4981030;28;20039;-85
2023/08/20 03:57:54;;;;;;;18.38;12.38;;;;;;;-142.57;88.55;115900.28;4982622;28;20030;-85
2023/08/20 04:00:23;;;;;;;19.35;12.77;;;;;;;-142.57;89.05;115900.28;5001066;28;20033;-87
2023/08/20 04:02:51;;;;;;;19.60;12.63;;;;;;;-142.57;88.48;115900.28;4999147;28;20397;-86
2023/08/20 04:05:17;;;;;;;21.70;11.43;;;;;;;-142.57;88.61;115900.28;4996310;28;20034;-88
2023/08/20 04:07:42;;;;;;;19.42;13.00;;;;;;;-142.57;88.47;115900.28;4997906;28;20110;-90
2023/08/20 04:10:09;;;;;;;15.32;11.65;;;;;;;-142.57;88.23;115900.28;4979787;28;20034;-85
2023/08/20 04:12:35;;;;;;;26.85;12.63;;;;;;;-142.57;88.90;115900.28;4978504;28;20018;-86
2023/08/20 04:15:00;;;;;;;25.60;12.82;;;;;;;-142.57;88.87;115900.28;4995678;28;20143;-85
2023/08/20 04:17:26;;;;;;;22.48;12.82;;;;;;;-142.57;88.70;115900.28;4995876;28;20026;-85
2023/08/20 04:19:51;;;;;;;17.42;12.18;;;;;;;-142.57;88.46;115900.28;4994263;28;20460;-84
2023/08/20 04:22:17;;;;;;;18.88;12.50;;;;;;;-142.57;87.65;115900.28;4996883;28;20034;-86
2023/08/20 04:24:43;;;;;;;19.30;13.05;;;;;;;-142.57;88.76;115900.28;4998074;28;20125;-90
2023/08/20 04:27:08;;;;;;;25.85;13.77;;;;;;;-142.57;89.76;115900.28;4999720;28;20034;-86
2023/08/20 04:29:35;;;;;;;18.15;14.02;;;;;;;-142.57;89.34;115900.28;4999528;28;20065;-89
2023/08/20 04:32:04;;;;;;;19.35;13.60;;;;;;;-142.57;89.41;115900.28;4985252;28;20551;-87
2023/08/20 04:34:30;;;;;;;25.05;12.75;;;;;;;-142.57;87.96;115900.28;5000374;28;20027;-88
2023/08/20 04:36:55;;;;;;;18.13;12.30;;;;;;;-142.57;87.08;115900.28;4999842;28;20045;-85
2023/08/20 04:39:22;;;;;;;19.08;13.13;;;;;;;-142.57;88.04;115900.28;4982546;28;20445;-90
2023/08/20 04:41:57;;;;;;;20.58;13.63;;;;;;;-142.57;87.98;115900.28;5006475;28;20049;-87
2023/08/20 04:44:23;;;;;;;;;;;;;;;-142.57;89.24;115900.28;4990702;28;20046;-87
2023/08/20 04:46:52;;;;;;;22.45;15.15;;;;;;;-142.57;90.03;115900.28;5009895;28;19968;-87
2023/08/20 04:49:18;;;;;;;29.00;17.73;;;;;;;-142.57;91.02;115900.28;4991650;28;20041;-88
2023/08/20 04:51:43;;;;;;;24.50;17.15;;;;;;;-142.57;91.81;115900.28;5013520;28;20039;-86
2023/08/20 04:54:47;;;;;;;27.42;19.13;;;;;;;-142.57;92.39;115900.28;5015377;28;20029;-85
2023/08/20 04:57:12;;;;;;;27.02;18.02;;;;;;;-142.57;92.58;115900.28;5004654;28;20120;-87
2023/08/20 04:59:39;;;;;;;28.50;19.77;;;;;;;-142.57;92.98;115900.28;4988514;28;20102;-85
2023/08/20 05:02:39;;;;;;;28.25;19.80;;;;;;;-142.57;93.12;115900.28;4995097;28;20080;-86
2023/08/20 05:05:06;;;;;;;27.73;20.00;;;;;;;-142.57;91.96;115900.28;4979654;28;20081;-89
2023/08/20 05:07:32;;;;;;;28.83;19.35;;;;;;;-142.57;92.03;115900.28;4981667;28;20030;-85
2023/08/20 05:09:57;;;;;;;25.85;17.90;;;;;;;-142.57;92.44;115900.28;4981309;28;20049;-84
2023/08/20 05:12:23;;;;;;;26.38;17.75;;;;;;;-142.57;91.39;115900.28;4997148;28;20469;-90
2023/08/20 05:14:48;;;;;;;25.73;18.38;;;;;;;-142.57;91.26;115900.28;5005188;28;20072;-83
2023/08/20 05:17:14;;;;;;;40.33;18.25;;;;;;;-142.57;90.65;115900.28;4995826;28;20045;-86
2023/08/20 05:19:40;;;;;;;21.85;16.52;;;;;;;-142.57;89.43;115900.28;5011301;28;20042;-85
2023/08/20 05:22:05;;;;;;;22.75;16.23;;;;;;;-142.57;87.47;115900.28;5010417;28;20155;-87
2023/08/20 05:24:34;;;;;;;31.17;17.50;;;;;;;-142.57;86.03;115900.28;4993333;28;20038;-85
2023/08/20 05:27:19;;;;;;;24.00;16.60;;;;;;;-142.57;85.20;115900.28;5009577;28;20475;-87
2023/08/20 05:29:48;;;;;;;29.20;16.27;;;;;;;-142.57;83.41;115900.28;4982759;28;20038;-88
2023/08/20 05:32:16;;;;;;;17.80;14.48;;;;;;;-142.57;81.15;115900.28;4981025;28;20038;-85
2023/08/20 05:34:42;;;;;;;25.83;16.08;;;;;;;-142.57;79.52;115900.28;4999233;28;20503;-84
2023/08/20 05:37:08;;;;;;;19.38;15.30;;;;;;;-142.57;77.21;115900.28;4982006;28;20452;-86
2023/08/20 05:39:43;;;;;;;21.85;15.25;;;;;;;-142.57;72.07;115900.28;4997177;28;20436;-85
2023/08/20 05:42:09;;;;;;;20.70;14.85;;;;;;;-142.57;73.95;115900.28;4980717;28;20034;-86
2023/08/20 05:44:36;;;;;;;25.48;15.45;;;;;;;-142.57;69.51;115900.28;4964882;28;20157;-86
2023/08/20 05:47:02;;;;;;;21.92;14.68;;;;;;;-142.57;67.39;115900.28;4965478;28;20500;-85
2023/08/20 05:49:28;;;;;;;20.50;13.77;;;;;;;-142.57;66.17;115900.28;4980219;28;20121;-84
2023/08/20 05:51:54;;;;;;;20.17;14.63;;;;;;;-142.57;61.93;115900.28;4996478;28;20477;-83
2023/08/20 05:54:20;;;;;;;26.08;14.90;;;;;;;-142.57;64.23;115900.28;4996386;28;20034;-84
2023/08/20 05:56:47;;;;;;;35.50;15.45;;;;;;;-142.57;66.09;115900.28;4980196;28;20030;-82
2023/08/20 05:59:13;;;;;;;27.42;14.95;;;;;;;-142.57;66.05;115900.28;4980099;28;20022;-84
2023/08/20 06:01:38;;;;;;;22.83;15.40;;;;;;;-142.57;64.47;115900.28;4997995;28;20035;-86
2023/08/20 06:04:05;;;;;;;18.02;15.25;;;;;;;-142.57;63.28;115900.28;5003397;28;20064;-88
2023/08/20 06:06:30;;;;;;;18.20;13.57;;;;;;;-142.57;60.86;115900.28;5000516;28;20125;-85
2023/08/20 06:08:56;;;;;;;30.63;15.63;;;;;;;-142.57;61.66;115900.28;5000472;28;20042;-86
2023/08/20 06:11:21;;;;;;;21.90;14.48;;;;;;;-142.57;62.11;115900.28;5001341;28;20038;-88
2023/08/20 06:13:47;;;;;;;20.20;13.77;;;;;;;-142.57;57.60;115900.28;5002999;28;20097;-89
2023/08/20 06:16:12;;;;;;;18.27;14.68;;;;;;;-142.57;56.17;115900.28;5004941;28;20530;-87
2023/08/20 06:18:38;;;;;;;21.83;14.50;;;;;;;-142.57;58.37;115900.28;5004562;28;20030;-85
2023/08/20 06:21:04;;;;;;;20.77;13.10;;;;;;;-142.57;57.19;115900.28;5004116;28;20121;-86
2023/08/20 06:23:29;;;;;;;18.13;14.10;;;;;;;-142.57;52.86;115900.28;5002309;28;20036;-91
2023/08/20 06:25:58;;;;;;;24.35;13.70;;;;;;;-142.57;51.77;115900.28;5001506;28;20175;-91
2023/08/20 06:28:30;;;;;;;23.00;13.20;;;;;;;-142.57;48.80;115900.28;4984652;28;20064;-90
2023/08/20 06:30:56;;;;;;;19.65;13.20;;;;;;;-142.57;49.02;115900.28;5007498;28;20057;-92
2023/08/20 06:33:24;;;;;;;19.88;13.60;;;;;;;-142.57;48.13;115900.28;4987484;28;20047;-92
2023/08/20 06:35:53;;;;;;;17.30;13.13;;;;;;;-142.57;47.65;115900.28;5009517;28;20077;-86
2023/08/20 06:38:18;;;;;;;25.13;12.63;;;;;;;-142.57;49.82;115900.28;5006562;28;20034;-88
2023/08/20 06:40:44;;;;;;;16.33;12.88;;;;;;;-142.57;52.57;115900.28;5005854;28;20135;-88
2023/08/20 06:43:15;;;;;;;19.80;13.10;;;;;;;-142.57;55.91;115900.28;4986296;28;20038;-90
2023/08/20 06:45:40;;;;;;;18.70;14.00;;;;;;;-142.57;56.28;115900.28;4999408;28;20034;-90
2023/08/20 06:48:09;;;;;;;24.58;13.07;;;;;;;-142.57;52.63;115900.28;4999104;28;20500;-89
2023/08/20 06:50:34;;;;;;;17.23;12.35;;;;;;;-142.57;53.17;115900.28;5000966;28;20382;-90
2023/08/20 06:53:00;;;;;;;18.33;11.73;;;;;;;-142.57;51.10;115900.28;5001019;28;20113;-88
2023/08/20 06:55:26;;;;;;;17.02;11.52;;;;;;;-142.57;46.69;115900.28;5006056;28;20050;-88
2023/08/20 06:57:52;;;;;;;20.42;11.98;;;;;;;-142.57;47.44;115900.28;5009403;28;20039;-85
2023/08/20 07:00:19;;;;;;;21.10;11.70;;;;;;;-142.57;50.92;115900.28;5009494;28;20045;-85
2023/08/20 07:02:44;;;;;;;18.30;11.30;;;;;;;-142.57;48.47;115900.28;5006017;28;20065;-87
2023/08/20 07:05:14;;;;;;;16.75;11.48;;;;;;;-142.57;46.71;115900.28;4993567;28;20030;-87
2023/08/20 07:07:40;;;;;;;18.10;11.18;;;;;;;-142.57;48.81;115900.28;4999935;28;20058;-87
2023/08/20 07:10:06;;;;;;;19.65;12.07;;;;;;;-142.57;50.48;115900.28;5001157;28;20031;-86
2023/08/20 07:12:32;;;;;;;24.17;11.20;;;;;;;-142.57;50.57;115900.28;4983242;28;20093;-86
2023/08/20 07:14:57;;;;;;;19.15;11.48;;;;;;;-142.57;46.10;115900.28;4997660;28;20505;-88
2023/08/20 07:17:23;;;;;;;20.83;11.88;;;;;;;-142.57;46.11;115900.28;4998558;28;20026;-86
2023/08/20 07:19:48;;;;;;;16.58;11.57;;;;;;;-142.57;44.33;115900.28;4996654;28;20457;-88
2023/08/20 07:22:14;;;;;;;20.15;10.73;;;;;;;-142.57;44.55;115900.28;4979248;28;20030;-83
2023/08/20 07:24:39;;;;;;;20.30;11.90;;;;;;;-142.57;45.40;115900.28;4979649;28;20066;-85
2023/08/20 07:27:10;;;;;;;19.50;10.00;;;;;;;-142.57;43.44;115900.28;4979791;28;20038;-87
2023/08/20 07:29:36;;;;;;;21.25;10.35;;;;;;;-142.57;42.34;115900.28;4981298;28;20057;-86
2023/08/20 07:32:03;;;;;;;21.30;11.48;;;;;;;-142.57;45.80;115900.28;4997461;28;20113;-86
2023/08/20 07:34:30;;;;;;;19.20;11.10;;;;;;;-142.57;45.05;115900.28;4997399;28;20506;-86
2023/08/20 07:36:56;;;;;;;17.08;10.68;;;;;;;-142.57;44.95;115900.28;5004502;28;20054;-85
2023/08/20 07:39:22;;;;;;;22.90;10.90;;;;;;;-142.57;44.43;115900.28;5002119;28;20042;-89
2023/08/20 07:41:48;;;;;;;15.10;10.52;;;;;;;-142.57;43.52;115900.28;5006046;28;20441;-83
2023/08/20 07:44:13;;;;;;;18.52;11.85;;;;;;;-142.57;46.70;115900.28;5011063;28;20030;-82
2023/08/20 07:46:39;;;;;;;20.02;12.70;;;;;;;-142.57;47.95;115900.28;4984497;28;20445;-83
2023/08/20 07:49:05;;;;;;;14.27;10.75;;;;;;;-142.57;43.61;115900.28;4997350;28;20030;-89
2023/08/20 07:51:31;;;;;;;17.42;11.25;;;;;;;-142.57;41.18;115900.28;5000680;28;20401;-87
2023/08/20 07:54:00;;;;;;;16.58;10.30;;;;;;;-142.57;43.01;115900.28;5003874;28;20044;-85
2023/08/20 07:56:26;;;;;;;17.42;9.23;;;;;;;-142.57;42.74;115900.28;5001618;28;20062;-87
2023/08/20 07:58:55;;;;;;;18.25;10.07;;;;;;;-142.57;41.68;115900.28;5002785;28;20038;-88
2023/08/20 08:01:26;;;;;;;18.23;10.77;;;;;;;-142.57;43.92;115900.28;5001109;28;20034;-82
2023/08/20 08:03:52;;;;;;;16.85;9.63;;;;;;;-142.57;43.82;115900.28;5006196;28;20046;-79
2023/08/20 08:06:24;;;;;;;16.75;9.80;;;;;;;-142.57;44.47;115900.28;5002541;28;20051;-85
2023/08/20 08:08:49;;;;;;;15.63;9.95;;;;;;;-142.57;43.18;115900.28;4985964;28;20046;-82
2023/08/20 08:11:18;;;;;;;15.68;10.75;;;;;;;-142.57;42.12;115900.28;5068757;23;20105;-84
2023/08/20 08:13:45;;;;;;;17.88;12.10;;;;;;;-142.57;44.08;115900.28;5027477;28;20050;-79
2023/08/20 08:16:10;;;;;;;19.67;10.93;;;;;;;-142.57;44.99;115900.28;5018365;28;20388;-80
2023/08/20 08:18:35;;;;;;;19.48;8.68;;;;;;;-142.57;42.36;115900.28;5019584;28;20032;-83
2023/08/20 08:21:04;;;;;;;13.57;8.02;;;;;;;-142.57;42.16;115900.28;5015759;28;20062;-88
2023/08/20 08:23:30;;;;;;;16.58;9.50;;;;;;;-142.57;40.03;115900.28;5016409;28;20061;-85
2023/08/20 08:25:55;;;;;;;17.50;11.70;;;;;;;-142.57;42.55;115900.28;4967600;28;20413;-86
2023/08/20 08:28:30;;;;;;;14.23;11.75;;;;;;;-142.57;42.93;115900.28;4998239;28;20061;-79
2023/08/20 08:30:55;;;;;;;17.65;11.57;;;;;;;-142.57;41.53;115900.28;4999779;28;20041;-87
2023/08/20 08:33:21;;;;;;;24.00;13.27;;;;;;;-142.57;41.51;115900.28;4998252;28;20030;-84
2023/08/20 08:35:47;;;;;;;12.90;8.85;;;;;;;-142.57;40.22;115900.28;5003476;28;20041;-90
2023/08/20 08:38:12;;;;;;;15.20;10.27;;;;;;;-142.57;39.91;115900.28;4963158;28;20188;-89
2023/08/20 08:40:40;;;;;;;15.15;8.48;;;;;;;-142.57;39.96;115900.28;4997286;28;20038;-89
2023/08/20 08:43:06;;;;;;;19.75;11.13;;;;;;;-142.57;39.15;115900.28;4997067;28;20031;-90
2023/08/20 08:45:33;;;;;;;18.95;11.43;;;;;;;-142.57;39.59;115900.28;4996994;28;20421;-90
2023/08/20 08:47:58;;;;;;;13.95;9.52;;;;;;;-142.57;38.92;115900.28;4999215;28;20030;-90
2023/08/20 08:50:24;;;;;;;15.25;10.07;;;;;;;-142.57;39.51;115900.28;4999628;28;20041;-91
2023/08/20 08:52:52;;;;;;;15.35;10.60;;;;;;;-142.57;39.33;115900.28;4984680;28;20046;-91
2023/08/20 08:55:18;;;;;;;18.88;10.75;;;;;;;-142.57;39.97;115900.28;4986730;28;20045;-90
2023/08/20 08:57:43;;;;;;;12.57;9.80;;;;;;;-142.57;38.77;115900.28;4988892;28;20042;-90
2023/08/20 09:00:09;;;;;;;13.88;9.23;;;;;;;-142.57;40.80;115900.28;5004527;28;20034;-90
2023/08/20 09:02:35;;;;;;;11.68;8.30;;;;;;;-142.57;39.37;115900.28;5005479;28;20034;-88
2023/08/20 09:05:01;;;;;;;14.40;9.90;;;;;;;-142.57;37.12;115900.28;5001982;28;20052;-90
2023/08/20 09:07:26;;;;;;;19.88;9.63;;;;;;;-142.57;36.56;115900.28;5001958;28;20481;-89
2023/08/20 09:09:58;;;;;;;13.90;8.25;;;;;;;-142.57;36.44;115900.28;5005955;28;20046;-89
2023/08/20 09:12:27;;;;;;;13.45;9.10;;;;;;;-142.57;36.46;115900.28;4988836;28;20118;-90
2023/08/20 09:14:54;;;;;;;17.10;10.32;;;;;;;-142.57;37.47;115900.28;5007750;28;20046;-90
2023/08/20 09:17:20;;;;;;;11.20;9.07;;;;;;;-142.57;37.57;115900.28;5008826;28;20034;-89
2023/08/20 09:19:46;;;;;;;20.65;8.70;;;;;;;-142.57;37.17;115900.28;5008875;28;20035;-88
2023/08/20 09:22:12;;;;;;;14.02;8.48;;;;;;;-142.57;36.66;115900.28;5008678;28;20034;-89
2023/08/20 09:24:57;;;;;;;20.40;8.80;;;;;;;-142.57;36.86;115900.28;5030704;23;20138;-91
2023/08/20 09:27:23;;;;;;;17.17;8.15;;;;;;;-142.57;36.30;115900.28;4993245;28;20043;-87
2023/08/20 09:29:54;;;;;;;13.25;8.52;;;;;;;-142.57;35.90;115900.28;5005752;28;20114;-84
2023/08/20 09:32:25;;;;;;;14.00;6.60;;;;;;;-142.57;36.04;115900.28;5003415;28;20333;-89
2023/08/20 09:34:53;;;;;;;11.30;6.90;;;;;;;-142.57;35.46;115900.28;4984284;28;20041;-88
2023/08/20 09:37:20;;;;;;;12.27;6.82;;;;;;;-142.57;35.35;115900.28;5001376;28;20030;-89
2023/08/20 09:39:46;;;;;;;10.20;7.00;;;;;;;-142.57;35.69;115900.28;4967428;28;20154;-87
2023/08/20 09:42:13;;;;;;;13.43;7.45;;;;;;;-142.57;35.88;115900.28;4983596;28;20037;-90
2023/08/20 09:44:44;;;;;;;14.52;7.00;;;;;;;-142.57;35.84;115900.28;4981192;28;20038;-91
2023/08/20 09:47:12;;;;;;;13.98;6.53;;;;;;;-142.57;34.64;115900.28;4998872;28;20041;-89
2023/08/20 09:49:48;;;;;;;9.70;7.30;;;;;;;-142.57;34.52;115900.28;4980648;28;20111;-88
2023/08/20 09:52:44;;;;;;;12.02;6.60;;;;;;;-142.57;34.04;115900.28;4997925;28;20039;-88
2023/08/20 09:55:16;;;;;;;16.10;6.57;;;;;;;-142.57;33.69;115900.28;4979784;28;20066;-88
2023/08/20 09:57:41;;;;;;;11.98;6.35;;;;;;;-142.57;34.66;115900.28;4998695;28;20042;-89
2023/08/20 10:00:12;;;;;;;7.18;6.15;;;;;;;-142.57;34.19;115900.28;4998919;28;20027;-88
2023/08/20 10:02:41;;;;;;;7.88;5.72;;;;;;;-142.57;33.29;115900.28;4998746;28;20038;-87
2023/08/20 10:05:08;;;;;;;13.43;6.03;;;;;;;-142.57;33.21;115900.28;4998866;28;20030;-90
2023/08/20 10:07:35;;;;;;;14.32;7.18;;;;;;;-142.57;33.52;115900.28;4998933;28;20042;-90
2023/08/20 10:10:04;;;;;;;15.38;6.85;;;;;;;-142.57;33.42;115900.28;4998492;28;20117;-88
2023/08/20 10:12:34;;;;;;;11.80;6.63;;;;;;;-142.57;32.93;115900.28;4998774;28;20117;-86
2023/08/20 10:15:03;;;;;;;14.13;6.85;;;;;;;-142.57;33.58;115900.28;4999500;28;20440;-88
2023/08/20 10:17:30;;;;;;;11.45;6.75;;;;;;;-142.57;33.61;115900.28;4970270;28;20140;-89
2023/08/20 10:19:58;;;;;;;16.02;6.20;;;;;;;-142.57;33.07;115900.28;5004667;28;20041;-89
2023/08/20 10:22:44;;;;;;;12.35;6.43;;;;;;;-142.57;32.32;115900.28;5003597;28;20117;-91
2023/08/20 10:25:23;;;;;;;7.28;5.72;;;;;;;-142.57;31.98;115900.28;4983798;28;20061;-90
2023/08/20 10:27:49;;;;;;;11.50;5.20;;;;;;;-142.57;32.29;115900.28;5000856;28;20387;-89
2023/08/20 10:30:21;;;;;;;11.07;5.45;;;;;;;-142.57;32.34;115900.28;5002052;28;20022;-89
2023/08/20 10:32:48;;;;;;;18.65;6.25;;;;;;;-142.57;32.90;115900.28;4996017;28;20042;-87
2023/08/20 10:35:29;;;;;;;7.72;5.07;;;;;;;-142.57;31.53;115900.28;5012636;28;20094;-90
2023/08/20 10:38:09;;;;;;;13.30;5.60;;;;;;;-142.57;31.51;115900.28;4998142;28;20038;-88
2023/08/20 10:40:56;;;;;;;6.78;5.40;;;;;;;-142.57;31.29;115900.28;4989820;28;20034;-92
2023/08/20 10:43:36;;;;;;;10.93;5.45;;;;;;;-142.57;31.25;115900.28;5005561;28;20053;-89
2023/08/20 10:46:09;;;;;;;8.77;5.30;;;;;;;-142.57;30.88;115900.28;4975561;28;20040;-86
2023/08/20 10:48:40;;;;;;;8.00;4.88;;;;;;;-142.57;30.69;115900.28;5010206;28;20022;-89
2023/08/20 10:51:26;;;;;;;10.50;4.45;;;;;;;-142.57;30.23;115900.28;4962024;28;20061;-88
2023/08/20 10:54:02;;;;;;;8.23;4.78;;;;;;;-142.57;30.82;115900.28;5015032;28;20065;-88
2023/08/20 10:56:45;;;;;;;7.53;4.82;;;;;;;-142.57;31.60;115900.28;5010358;28;20054;-91
2023/08/20 10:59:30;;;;;;;7.65;5.28;;;;;;;-142.57;31.10;115900.28;5006885;28;20373;-90
2023/08/20 11:02:00;;;;;;;6.10;4.65;;;;;;;-142.57;30.86;115900.28;4987242;28;20124;-88